createdAt,value
2023-03-06T00:01:30.364Z,9.83
2023-03-06T00:03:57.904Z,14.80
2023-03-06T00:06:25.456Z,12.40
2023-03-06T00:08:52.954Z,14.67
2023-03-06T00:11:20.753Z,13.43
2023-03-06T00:13:48.248Z,14.67
2023-03-06T00:16:15.845Z,15.20
2023-03-06T00:18:43.384Z,16.10
2023-03-06T00:21:10.926Z,17.53
2023-03-06T00:23:38.385Z,19.67
2023-03-06T00:26:07.712Z,18.33
2023-03-06T00:28:35.612Z,14.37
2023-03-06T00:31:03.714Z,15.43
2023-03-06T00:33:31.246Z,17.43
2023-03-06T00:35:58.819Z,21.47
2023-03-06T00:38:26.300Z,15.87
2023-03-06T00:40:53.860Z,15.33
2023-03-06T00:43:21.387Z,17.80
2023-03-06T00:45:48.926Z,19.53
2023-03-06T00:48:16.454Z,18.43
2023-03-06T00:50:44.039Z,19.10
2023-03-06T00:53:11.553Z,18.47
2023-03-06T00:55:39.063Z,19.10
2023-03-06T00:58:06.548Z,20.40
2023-03-06T01:00:34.059Z,20.17
2023-03-06T01:03:01.581Z,18.90
2023-03-06T01:05:29.136Z,17.80
2023-03-06T01:07:56.611Z,23.80
2023-03-06T01:10:24.261Z,20.77
2023-03-06T01:12:51.769Z,20.53
2023-03-06T01:15:19.576Z,22.53
2023-03-06T01:17:47.143Z,23.47
2023-03-06T01:20:15.706Z,21.43
2023-03-06T01:22:43.516Z,23.63
2023-03-06T01:25:11.337Z,22.03
2023-03-06T01:27:38.836Z,21.73
2023-03-06T01:30:06.811Z,23.93
2023-03-06T01:32:34.378Z,22.10
2023-03-06T01:35:01.924Z,22.53
2023-03-06T01:37:29.408Z,22.50
2023-03-06T01:39:57.064Z,21.03
2023-03-06T01:42:24.545Z,24.27
2023-03-06T01:45:02.853Z,25.33
2023-03-06T01:47:30.450Z,23.83
2023-03-06T01:49:58.829Z,24.67
2023-03-06T01:52:27.881Z,25.07
2023-03-06T01:54:57.465Z,25.33
2023-03-06T01:57:28.088Z,23.00
2023-03-06T02:00:15.973Z,24.73
2023-03-06T02:02:45.558Z,24.87
2023-03-06T02:05:13.516Z,24.53
2023-03-06T02:07:41.283Z,27.03
2023-03-06T02:10:08.960Z,25.07
2023-03-06T02:12:36.615Z,28.70
2023-03-06T02:15:04.555Z,26.67
2023-03-06T02:17:34.718Z,27.83
2023-03-06T02:20:02.267Z,32.70
2023-03-06T02:22:36.774Z,28.13
2023-03-06T02:25:04.309Z,31.33
2023-03-06T02:27:32.383Z,29.10
2023-03-06T02:29:59.939Z,32.00
2023-03-06T02:32:27.508Z,33.90
2023-03-06T02:34:58.471Z,32.33
2023-03-06T02:37:27.581Z,28.10
2023-03-06T02:39:59.476Z,33.00
2023-03-06T02:42:27.815Z,27.63
2023-03-06T02:44:56.640Z,27.23
2023-03-06T02:47:24.212Z,28.77
2023-03-06T02:49:51.722Z,26.97
2023-03-06T02:52:19.258Z,25.50
2023-03-06T02:54:46.736Z,28.03
2023-03-06T02:57:14.385Z,25.50
2023-03-06T02:59:41.858Z,28.90
2023-03-06T03:02:09.532Z,27.27
2023-03-06T03:04:37.030Z,26.10
2023-03-06T03:07:04.619Z,23.27
2023-03-06T03:09:32.128Z,26.43
2023-03-06T03:11:59.704Z,25.63
2023-03-06T03:14:27.246Z,23.70
2023-03-06T03:16:54.746Z,25.57
2023-03-06T03:19:22.304Z,22.93
2023-03-06T03:21:50.876Z,23.23
2023-03-06T03:24:18.387Z,24.27
2023-03-06T03:26:46.023Z,26.73
2023-03-06T03:29:13.527Z,21.10
2023-03-06T03:31:41.042Z,21.23
2023-03-06T03:34:08.529Z,24.53
2023-03-06T03:36:36.031Z,22.67
2023-03-06T03:39:03.700Z,22.33
2023-03-06T03:41:31.259Z,23.93
2023-03-06T03:43:58.785Z,23.23
2023-03-06T03:46:26.640Z,24.17
2023-03-06T03:48:54.164Z,23.77
2023-03-06T03:51:21.700Z,22.70
2023-03-06T03:53:49.235Z,25.53
2023-03-06T03:56:16.886Z,28.03
2023-03-06T03:58:44.414Z,24.83
2023-03-06T04:01:11.944Z,27.17
2023-03-06T04:03:39.485Z,29.83
2023-03-06T04:06:07.305Z,28.00
2023-03-06T04:08:35.302Z,26.00
2023-03-06T04:11:02.930Z,28.47
2023-03-06T04:13:30.523Z,29.93
2023-03-06T04:15:58.129Z,30.07
2023-03-06T04:18:26.356Z,29.73
2023-03-06T04:20:53.911Z,30.73
2023-03-06T04:23:21.432Z,29.37
2023-03-06T04:25:49.019Z,31.43
2023-03-06T04:28:16.859Z,31.80
2023-03-06T04:30:44.404Z,34.53
2023-03-06T04:33:12.258Z,36.60
2023-03-06T04:35:39.890Z,37.15
2023-03-06T04:38:07.503Z,34.97
2023-03-06T04:40:35.827Z,35.63
2023-03-06T04:43:04.012Z,35.20
2023-03-06T04:45:32.453Z,33.50
2023-03-06T04:48:00.018Z,34.17
2023-03-06T04:50:31.670Z,35.90
2023-03-06T04:53:00.285Z,35.17
2023-03-06T04:55:28.411Z,34.90
2023-03-06T04:57:55.989Z,35.30
2023-03-06T05:00:24.330Z,30.77
2023-03-06T05:02:52.420Z,32.43
2023-03-06T05:05:20.007Z,28.50
2023-03-06T05:07:47.528Z,29.50
2023-03-06T05:10:16.374Z,29.60
2023-03-06T05:12:43.992Z,30.37
2023-03-06T05:15:12.231Z,27.43
2023-03-06T05:17:39.777Z,29.07
2023-03-06T05:20:08.555Z,26.63
2023-03-06T05:22:36.334Z,26.50
2023-03-06T05:25:03.917Z,26.33
2023-03-06T05:27:31.639Z,32.50
2023-03-06T05:29:59.338Z,28.93
2023-03-06T05:32:27.115Z,29.73
2023-03-06T05:34:54.801Z,31.77
2023-03-06T05:37:22.443Z,30.53
2023-03-06T05:39:50.643Z,38.17
2023-03-06T05:42:18.396Z,32.90
2023-03-06T05:44:46.056Z,29.63
2023-03-06T05:47:13.905Z,33.47
2023-03-06T05:49:41.663Z,30.57
2023-03-06T05:52:09.569Z,34.13
2023-03-06T05:54:37.733Z,32.73
2023-03-06T05:57:05.843Z,27.90
2023-03-06T05:59:33.403Z,31.77
2023-03-06T06:02:01.545Z,32.67
2023-03-06T06:04:29.209Z,27.93
2023-03-06T06:07:00.612Z,28.43
2023-03-06T06:09:28.722Z,28.27
2023-03-06T06:11:57.963Z,30.40
2023-03-06T06:14:25.589Z,30.40
2023-03-06T06:16:53.132Z,29.73
2023-03-06T06:19:20.860Z,32.50
2023-03-06T06:21:49.221Z,28.37
2023-03-06T06:24:17.595Z,31.93
2023-03-06T06:26:45.159Z,29.07
2023-03-06T06:29:13.038Z,33.80
2023-03-06T06:31:40.572Z,34.97
2023-03-06T06:34:08.841Z,32.10
2023-03-06T06:36:36.594Z,35.13
2023-03-06T06:39:04.793Z,31.67
2023-03-06T06:41:51.039Z,35.50
2023-03-06T06:44:20.697Z,33.33
2023-03-06T06:49:35.745Z,30.43
2023-03-06T06:52:03.304Z,31.87
2023-03-06T06:54:30.865Z,30.90
2023-03-06T06:56:58.441Z,32.40
2023-03-06T06:59:26.193Z,31.83
2023-03-06T07:01:53.792Z,30.83
2023-03-06T07:04:21.378Z,36.13
2023-03-06T07:06:48.892Z,30.70
2023-03-06T07:09:16.541Z,33.20
2023-03-06T07:11:44.292Z,30.83
2023-03-06T07:14:11.859Z,29.30
2023-03-06T07:16:39.366Z,29.40
2023-03-06T07:19:07.211Z,31.67
2023-03-06T07:21:34.990Z,32.60
2023-03-06T07:24:02.584Z,29.80
2023-03-06T07:26:30.401Z,26.37
2023-03-06T07:28:58.727Z,32.17
2023-03-06T07:31:27.149Z,29.33
2023-03-06T07:33:55.373Z,35.43
2023-03-06T07:36:23.966Z,35.23
2023-03-06T07:38:51.594Z,35.57
2023-03-06T07:41:22.184Z,44.47
2023-03-06T07:43:50.285Z,42.73
2023-03-06T07:46:18.119Z,49.90
2023-03-06T07:48:45.727Z,49.53
2023-03-06T07:51:17.949Z,54.70
2023-03-06T07:53:45.530Z,57.63
2023-03-06T07:56:13.586Z,53.37
2023-03-06T07:58:42.441Z,48.67
2023-03-06T08:01:11.146Z,48.57
2023-03-06T08:03:38.789Z,50.43
2023-03-06T08:06:13.864Z,48.37
2023-03-06T08:08:42.585Z,47.23
2023-03-06T08:11:10.775Z,50.73
2023-03-06T08:13:38.363Z,53.83
2023-03-06T08:16:06.197Z,54.27
2023-03-06T08:18:33.845Z,52.57
2023-03-06T08:21:09.204Z,52.87
2023-03-06T08:23:37.410Z,46.03
2023-03-06T08:26:06.403Z,48.47
2023-03-06T08:28:34.034Z,42.57
2023-03-06T08:31:08.581Z,47.27
2023-03-06T08:33:36.474Z,44.53
2023-03-06T08:36:04.061Z,44.30
2023-03-06T08:38:31.648Z,45.63
2023-03-06T08:40:59.238Z,46.03
2023-03-06T08:43:26.848Z,40.47
2023-03-06T08:45:54.984Z,43.43
2023-03-06T08:48:22.544Z,44.23
2023-03-06T08:50:50.232Z,41.37
2023-03-06T08:53:18.095Z,42.37
2023-03-06T08:55:45.608Z,45.03
2023-03-06T08:58:13.214Z,44.57
2023-03-06T09:00:40.930Z,43.87
2023-03-06T09:03:08.585Z,40.87
2023-03-06T09:05:36.083Z,43.20
2023-03-06T09:08:03.692Z,41.87
2023-03-06T09:10:31.168Z,37.83
2023-03-06T09:12:58.718Z,39.57
2023-03-06T09:15:26.311Z,43.23
2023-03-06T09:17:54.081Z,40.93
2023-03-06T09:20:21.995Z,43.93
2023-03-06T09:22:49.641Z,39.80
2023-03-06T09:25:17.173Z,39.37
2023-03-06T09:27:44.756Z,34.07
2023-03-06T09:30:12.589Z,37.77
2023-03-06T09:32:40.173Z,38.63
2023-03-06T09:35:07.848Z,36.00
2023-03-06T09:37:35.472Z,35.53
2023-03-06T09:40:03.704Z,35.10
2023-03-06T09:42:32.038Z,32.17
2023-03-06T09:45:00.667Z,31.83
2023-03-06T09:47:46.933Z,29.30
2023-03-06T09:50:20.081Z,34.77
2023-03-06T09:52:47.586Z,29.83
2023-03-06T09:55:15.141Z,31.33
2023-03-06T09:57:52.442Z,34.43
2023-03-06T10:00:24.359Z,31.27
2023-03-06T10:02:56.368Z,36.63
2023-03-06T10:05:25.725Z,31.27
2023-03-06T10:07:56.213Z,27.37
2023-03-06T10:10:25.422Z,30.53
2023-03-06T10:12:58.141Z,28.30
2023-03-06T10:15:29.538Z,29.80
2023-03-06T10:17:57.384Z,27.57
2023-03-06T10:20:26.780Z,23.70
2023-03-06T10:23:05.294Z,26.97
2023-03-06T10:25:53.274Z,25.80
2023-03-06T10:28:44.084Z,28.67
2023-03-06T10:31:15.955Z,27.40
2023-03-06T10:33:51.400Z,28.13
2023-03-06T10:36:20.213Z,27.63
2023-03-06T10:38:48.164Z,30.53
2023-03-06T10:41:34.274Z,32.87
2023-03-06T10:44:01.805Z,31.30
2023-03-06T10:46:30.878Z,29.67
2023-03-06T10:48:59.567Z,30.03
2023-03-06T10:51:27.708Z,29.63
2023-03-06T10:54:00.775Z,27.77
2023-03-06T10:56:36.143Z,31.33
2023-03-06T10:59:07.728Z,29.33
2023-03-06T11:01:35.513Z,27.33
2023-03-06T11:04:21.713Z,31.90
2023-03-06T11:06:49.875Z,30.07
2023-03-06T11:09:17.339Z,30.27
2023-03-06T11:11:44.939Z,27.83
2023-03-06T11:14:17.124Z,28.73
2023-03-06T11:16:53.801Z,25.30
2023-03-06T11:19:24.429Z,27.17
2023-03-06T11:22:12.365Z,30.30
2023-03-06T11:24:43.046Z,30.53
2023-03-06T11:27:21.914Z,26.77
2023-03-06T11:29:50.460Z,29.30
2023-03-06T11:32:26.535Z,27.90
2023-03-06T11:34:54.266Z,27.97
2023-03-06T11:37:45.492Z,23.90
2023-03-06T11:40:25.483Z,24.33
2023-03-06T11:43:11.981Z,23.23
2023-03-06T11:45:46.977Z,22.43
2023-03-06T11:48:14.474Z,24.87
2023-03-06T11:50:41.972Z,23.13
2023-03-06T11:53:17.857Z,24.50
2023-03-06T11:55:49.853Z,25.60
2023-03-06T11:58:29.559Z,21.07
2023-03-06T12:01:15.570Z,21.80
2023-03-06T12:04:15.475Z,22.17
2023-03-06T12:07:01.694Z,18.20
2023-03-06T12:09:44.059Z,19.73
2023-03-06T12:12:21.403Z,19.57
2023-03-06T12:14:48.973Z,24.70
2023-03-06T12:17:19.313Z,22.50
2023-03-06T12:19:46.862Z,26.53
2023-03-06T12:22:32.671Z,22.43
2023-03-06T12:25:09.397Z,20.10
2023-03-06T12:27:43.128Z,18.87
2023-03-06T12:30:16.433Z,21.03
2023-03-06T12:33:07.091Z,19.87
2023-03-06T12:35:55.233Z,21.67
2023-03-06T12:38:40.282Z,18.63
2023-03-06T12:41:23.177Z,19.67
2023-03-06T12:44:16.958Z,18.87
2023-03-06T12:46:50.029Z,21.60
2023-03-06T12:49:26.352Z,25.83
2023-03-06T12:51:58.130Z,22.87
2023-03-06T12:54:27.901Z,24.23
2023-03-06T12:56:56.926Z,22.17
2023-03-06T12:59:43.177Z,22.30
2023-03-06T13:02:16.521Z,19.30
2023-03-06T13:04:57.349Z,22.30
2023-03-06T13:07:27.651Z,22.10
2023-03-06T13:10:10.236Z,23.03
2023-03-06T13:12:54.482Z,24.00
2023-03-06T13:15:40.690Z,19.87
2023-03-06T13:18:23.753Z,22.33
2023-03-06T13:20:57.792Z,24.33
2023-03-06T13:23:34.584Z,21.07
2023-03-06T13:26:25.210Z,21.90
2023-03-06T13:28:54.101Z,18.53
2023-03-06T13:31:34.015Z,22.33
2023-03-06T13:34:03.190Z,17.93
2023-03-06T13:36:34.454Z,21.47
2023-03-06T13:39:08.107Z,24.13
2023-03-06T13:41:37.362Z,20.73
2023-03-06T13:44:24.825Z,23.83
2023-03-06T13:47:00.394Z,19.30
2023-03-06T13:49:28.164Z,23.17
2023-03-06T13:51:55.619Z,21.07
2023-03-06T13:54:34.567Z,21.93
2023-03-06T13:57:10.474Z,23.43
2023-03-06T13:59:39.893Z,24.23
2023-03-06T14:02:24.750Z,21.70
2023-03-06T14:04:56.758Z,19.70
2023-03-06T14:07:24.445Z,19.97
2023-03-06T14:09:55.073Z,21.27
2023-03-06T14:12:28.717Z,20.93
2023-03-06T14:14:58.569Z,17.77
2023-03-06T14:17:30.889Z,17.97
2023-03-06T14:20:14.019Z,19.07
2023-03-06T14:22:41.564Z,16.57
2023-03-06T14:25:26.896Z,15.70
2023-03-06T14:27:58.180Z,14.00
2023-03-06T14:30:27.969Z,19.80
2023-03-06T14:32:55.784Z,19.90
2023-03-06T14:35:25.737Z,15.90
2023-03-06T14:37:54.304Z,16.90
2023-03-06T14:40:25.170Z,15.50
2023-03-06T14:43:10.412Z,16.50
2023-03-06T14:45:38.001Z,18.13
2023-03-06T14:48:06.791Z,21.00
2023-03-06T14:50:34.832Z,26.87
2023-03-06T14:53:14.537Z,28.70
2023-03-06T14:55:48.112Z,25.13
2023-03-06T14:58:18.075Z,25.77
2023-03-06T15:00:46.540Z,26.40
2023-03-06T15:03:17.093Z,24.50
2023-03-06T15:05:45.734Z,24.27
2023-03-06T15:08:17.240Z,25.43
2023-03-06T15:10:55.142Z,25.53
2023-03-06T15:13:24.063Z,27.03
2023-03-06T15:15:57.476Z,22.77
2023-03-06T15:18:35.196Z,21.03
2023-03-06T15:21:07.588Z,23.33
2023-03-06T15:23:35.151Z,22.67
2023-03-06T15:26:04.951Z,25.27
2023-03-06T15:28:36.681Z,22.03
2023-03-06T15:31:27.239Z,21.90
2023-03-06T15:34:02.631Z,21.77
2023-03-06T15:36:31.575Z,22.03
2023-03-06T15:38:59.102Z,19.03
2023-03-06T15:41:36.009Z,19.77
2023-03-06T15:44:09.109Z,22.20
2023-03-06T15:46:36.660Z,23.30
2023-03-06T15:49:04.200Z,21.90
2023-03-06T15:51:32.649Z,20.97
2023-03-06T15:54:11.397Z,18.57
2023-03-06T15:56:41.153Z,20.57
2023-03-06T15:59:08.951Z,21.43
2023-03-06T16:01:37.408Z,21.30
2023-03-06T16:04:05.147Z,21.60
2023-03-06T16:06:32.811Z,20.27
2023-03-06T16:09:00.392Z,19.87
2023-03-06T16:11:35.434Z,19.27
2023-03-06T16:14:14.738Z,19.00
2023-03-06T16:16:42.353Z,22.63
2023-03-06T16:19:25.379Z,20.00
2023-03-06T16:21:53.834Z,19.47
2023-03-06T16:24:21.291Z,21.63
2023-03-06T16:26:50.047Z,19.83
2023-03-06T16:29:18.490Z,20.20
2023-03-06T16:31:46.056Z,23.20
2023-03-06T16:34:13.613Z,24.80
2023-03-06T16:36:41.656Z,24.43
2023-03-06T16:39:19.302Z,22.87
2023-03-06T16:41:46.881Z,23.07
2023-03-06T16:44:14.570Z,23.93
2023-03-06T16:46:43.341Z,24.93
2023-03-06T16:49:24.190Z,24.27
2023-03-06T16:51:52.134Z,25.17
2023-03-06T16:54:20.219Z,31.17
2023-03-06T16:56:47.968Z,22.70
2023-03-06T16:59:15.473Z,27.43
2023-03-06T17:01:43.222Z,25.73
2023-03-06T17:04:11.384Z,25.33
2023-03-06T17:06:39.293Z,25.97
2023-03-06T17:09:07.114Z,25.43
2023-03-06T17:11:36.726Z,25.40
2023-03-06T17:14:04.335Z,23.20
2023-03-06T17:16:31.872Z,27.63
2023-03-06T17:18:59.415Z,26.17
2023-03-06T17:21:27.091Z,29.20
2023-03-06T17:23:54.713Z,24.07
2023-03-06T17:26:22.230Z,23.60
2023-03-06T17:28:49.837Z,24.57
2023-03-06T17:31:18.993Z,27.13
2023-03-06T17:33:46.666Z,24.60
2023-03-06T17:36:14.601Z,26.20
2023-03-06T17:38:42.764Z,29.10
2023-03-06T17:41:11.231Z,25.83
2023-03-06T17:43:39.508Z,23.73
2023-03-06T17:46:11.151Z,24.47
2023-03-06T17:48:39.194Z,25.13
2023-03-06T17:51:07.019Z,24.43
2023-03-06T17:53:34.757Z,23.83
2023-03-06T17:56:06.388Z,23.43
2023-03-06T17:58:34.238Z,26.30
2023-03-06T18:01:09.420Z,27.00
2023-03-06T18:03:38.643Z,28.73
2023-03-06T18:06:06.522Z,27.47
2023-03-06T18:08:34.071Z,27.23
2023-03-06T18:11:02.929Z,26.17
2023-03-06T18:13:30.946Z,26.43
2023-03-06T18:15:59.154Z,27.80
2023-03-06T18:18:27.083Z,27.20
2023-03-06T18:20:54.730Z,29.87
2023-03-06T18:23:22.843Z,26.87
2023-03-06T18:25:50.940Z,26.03
2023-03-06T18:28:18.432Z,26.20
2023-03-06T18:30:46.032Z,31.50
2023-03-06T18:33:13.588Z,30.63
2023-03-06T18:35:41.203Z,26.07
2023-03-06T18:38:08.687Z,26.87
2023-03-06T18:40:36.287Z,26.57
2023-03-06T18:43:03.773Z,24.83
2023-03-06T18:45:31.296Z,25.23
2023-03-06T18:47:58.893Z,27.47
2023-03-06T18:50:26.415Z,27.10
2023-03-06T18:52:54.028Z,29.50
2023-03-06T18:55:21.559Z,26.30
2023-03-06T18:57:49.141Z,27.53
2023-03-06T19:00:16.963Z,28.47
2023-03-06T19:02:44.674Z,27.00
2023-03-06T19:05:12.205Z,30.50
2023-03-06T19:07:39.754Z,33.43
2023-03-06T19:10:07.618Z,27.60
2023-03-06T19:12:35.166Z,26.67
2023-03-06T19:15:03.460Z,25.57
2023-03-06T19:17:30.959Z,25.80
2023-03-06T19:19:58.519Z,29.60
2023-03-06T19:22:26.019Z,23.87
2023-03-06T19:24:53.595Z,31.67
2023-03-06T19:27:21.116Z,24.57
2023-03-06T19:29:48.709Z,24.53
2023-03-06T19:32:16.295Z,25.40
2023-03-06T19:34:43.954Z,21.63
2023-03-06T19:37:11.533Z,23.90
2023-03-06T19:39:39.103Z,22.17
2023-03-06T19:42:06.643Z,22.93
2023-03-06T19:44:34.209Z,22.37
2023-03-06T19:47:01.705Z,23.07
2023-03-06T19:49:29.308Z,22.80
2023-03-06T19:51:56.854Z,22.23
2023-03-06T19:54:24.496Z,24.83
2023-03-06T19:56:52.100Z,21.27
2023-03-06T19:59:20.184Z,23.73
2023-03-06T20:01:47.732Z,25.90
2023-03-06T20:04:15.310Z,30.63
2023-03-06T20:06:42.996Z,22.90
2023-03-06T20:09:11.750Z,21.97
2023-03-06T20:11:39.635Z,22.03
2023-03-06T20:14:07.895Z,25.67
2023-03-06T20:16:36.036Z,24.47
2023-03-06T20:19:03.966Z,27.27
2023-03-06T20:21:33.296Z,24.93
2023-03-06T20:24:00.988Z,25.97
2023-03-06T20:26:29.155Z,25.50
2023-03-06T20:28:57.357Z,22.90
2023-03-06T20:31:26.120Z,27.50
2023-03-06T20:33:54.974Z,29.67
2023-03-06T20:36:23.910Z,27.23
2023-03-06T20:38:51.588Z,26.87
2023-03-06T20:41:21.474Z,22.93
2023-03-06T20:43:49.188Z,28.50
2023-03-06T20:46:17.075Z,27.87
2023-03-06T20:48:47.737Z,27.00
2023-03-06T20:51:21.216Z,28.77
2023-03-06T20:53:49.628Z,29.10
2023-03-06T20:56:18.959Z,26.33
2023-03-06T20:58:46.629Z,28.20
2023-03-06T21:01:21.802Z,29.13
2023-03-06T21:03:49.641Z,29.50
2023-03-06T21:06:17.162Z,30.17
2023-03-06T21:08:45.037Z,27.80
2023-03-06T21:11:12.580Z,25.33
2023-03-06T21:13:40.208Z,29.43
2023-03-06T21:16:08.842Z,28.47
2023-03-06T21:18:36.603Z,30.33
2023-03-06T21:21:11.187Z,34.30
2023-03-06T21:23:39.134Z,29.00
2023-03-06T21:26:07.869Z,32.27
2023-03-06T21:28:35.419Z,28.37
2023-03-06T21:31:03.299Z,30.37
2023-03-06T21:33:31.016Z,29.67
2023-03-06T21:35:58.680Z,31.80
2023-03-06T21:38:26.383Z,29.97
2023-03-06T21:40:54.044Z,32.63
2023-03-06T21:43:21.679Z,30.10
2023-03-06T21:45:49.795Z,30.47
2023-03-06T21:48:17.391Z,32.50
2023-03-06T21:50:44.965Z,35.00
2023-03-06T21:53:12.523Z,30.67
2023-03-06T21:55:40.485Z,32.50
2023-03-06T21:58:08.197Z,32.17
2023-03-06T22:00:35.678Z,33.83
2023-03-06T22:03:03.654Z,33.63
2023-03-06T22:05:31.312Z,36.63
2023-03-06T22:07:59.278Z,33.93
2023-03-06T22:10:26.842Z,31.40
2023-03-06T22:12:54.411Z,29.93
2023-03-06T22:15:21.981Z,28.17
2023-03-06T22:17:49.596Z,32.27
2023-03-06T22:20:17.377Z,30.97
2023-03-06T22:22:44.910Z,31.57
2023-03-06T22:25:12.386Z,30.83
2023-03-06T22:27:40.810Z,29.97
2023-03-06T22:30:08.734Z,31.20
2023-03-06T22:32:36.345Z,30.07
2023-03-06T22:35:03.925Z,29.97
2023-03-06T22:37:32.182Z,29.83
2023-03-06T22:39:59.691Z,27.33
2023-03-06T22:42:27.241Z,26.77
2023-03-06T22:44:54.766Z,27.07
2023-03-06T22:47:22.337Z,28.67
2023-03-06T22:49:49.831Z,23.63
2023-03-06T22:52:17.386Z,28.60
2023-03-06T22:54:44.878Z,23.57
2023-03-06T22:57:12.545Z,24.67
2023-03-06T22:59:40.036Z,25.17
2023-03-06T23:02:07.629Z,20.07
2023-03-06T23:04:35.282Z,23.47
2023-03-06T23:07:02.883Z,20.90
2023-03-06T23:09:30.394Z,18.33
2023-03-06T23:11:57.981Z,18.10
2023-03-06T23:14:25.585Z,17.23
2023-03-06T23:16:56.473Z,16.47
2023-03-06T23:19:24.124Z,13.63
2023-03-06T23:21:52.072Z,15.40
2023-03-06T23:24:19.622Z,16.60
2023-03-06T23:26:47.255Z,14.17
2023-03-06T23:29:14.773Z,14.13
2023-03-06T23:31:42.319Z,11.63
2023-03-06T23:34:10.263Z,13.40
2023-03-06T23:36:37.797Z,14.33
2023-03-06T23:39:05.388Z,12.57
2023-03-06T23:41:32.892Z,11.37
2023-03-06T23:44:00.460Z,12.23
2023-03-06T23:46:28.073Z,11.83
2023-03-06T23:48:55.655Z,12.57
2023-03-06T23:51:23.523Z,13.60
2023-03-06T23:53:55.319Z,11.60
2023-03-06T23:56:23.330Z,11.00
2023-03-06T23:58:50.868Z,11.97
